Pagina principale
METAR-TAF:

METAR-TAF

Aeroporti :

Ancona, Italia

latitudine: 43-37N, longitudine: 013-22E, altezza: 12 m

Osservazione

Il bollettino è stato emesso 41 minuti fa, alle 08:50 UTC
Vento 9 kt da nord/nord-est
Temperature 24°C
Umidità 57%
Pressione 1018 hPa
Visibilità 10 km o più
nessuna nube inferiore a 1500 m e nessun cumulonembo

METAR: LIPY 290850Z 03009KT CAVOK 24/15 Q1018

Ora: 11:31 (09:31 UTC)

Previsione

Il bollettino è stato emesso 4 ore e 31 minuti fa, alle 05:00 UTC
Previsione valida dal 29 alle 06 UTC al 30 alle 06 UTC
Vento 5 kt da direzioni variabili
Visibilità 10 km o più
Poco nuvoloso ad un'altezza di 3500 ft
Evoluzione graduale
dal 29 alle 08 UTC al 29 alle 10 UTC
Vento 10 kt da nord-est
Evoluzione graduale
dal 29 alle 17 UTC al 29 alle 19 UTC
Vento 5 kt da direzioni variabili

TAF: LIPY 290500Z 2906/3006 VRB05KT 9999 FEW035 BECMG 2908/2910 04010KT BECMG 2917/2919 VRB05KT

Osservazioni e previsioni meteorologiche di più di 4000 aeroporti (messaggi METAR e TAF).

Le stazioni disponibili sono rappresentate dai dischi gialli e rossi sulla carta.

Puntare il mouse per vedere il nome della stazione.

Clicca sopra per visualizzare le osservazioni e previsioni meteorologiche.

Per cambiare la mappa : fare clic sui pulsanti verdi con una croce nera per ingrandire, il pulsante verde con un trattino per diminuire, o sulla freccia verde per le mappe adiacenti.


METAR-TAF: